sensor_id;sensor_type;location;lat;lon;timestamp;temperature;humidity
16267;DHT22;8241;48.786;9.250;2023-07-31T00:01:44;18.30;94.70
16267;DHT22;8241;48.786;9.250;2023-07-31T00:04:10;18.20;94.80
16267;DHT22;8241;48.786;9.250;2023-07-31T00:06:39;18.20;95.00
16267;DHT22;8241;48.786;9.250;2023-07-31T00:09:05;18.20;95.10
16267;DHT22;8241;48.786;9.250;2023-07-31T00:11:32;18.10;95.30
16267;DHT22;8241;48.786;9.250;2023-07-31T00:13:59;18.10;95.30
16267;DHT22;8241;48.786;9.250;2023-07-31T00:16:26;18.10;95.40
16267;DHT22;8241;48.786;9.250;2023-07-31T00:18:53;18.00;95.40
16267;DHT22;8241;48.786;9.250;2023-07-31T00:21:21;18.00;95.30
16267;DHT22;8241;48.786;9.250;2023-07-31T00:23:49;17.90;95.40
16267;DHT22;8241;48.786;9.250;2023-07-31T00:26:16;17.90;95.60
16267;DHT22;8241;48.786;9.250;2023-07-31T00:28:42;17.80;95.60
16267;DHT22;8241;48.786;9.250;2023-07-31T00:31:09;17.70;95.90
16267;DHT22;8241;48.786;9.250;2023-07-31T00:33:37;17.70;96.00
16267;DHT22;8241;48.786;9.250;2023-07-31T00:36:04;17.70;96.30
16267;DHT22;8241;48.786;9.250;2023-07-31T00:38:31;17.60;96.40
16267;DHT22;8241;48.786;9.250;2023-07-31T00:41:00;17.60;96.70
16267;DHT22;8241;48.786;9.250;2023-07-31T00:43:27;17.50;96.70
16267;DHT22;8241;48.786;9.250;2023-07-31T00:45:54;17.50;96.90
16267;DHT22;8241;48.786;9.250;2023-07-31T00:48:21;17.50;97.10
16267;DHT22;8241;48.786;9.250;2023-07-31T00:50:48;17.50;97.30
16267;DHT22;8241;48.786;9.250;2023-07-31T00:53:15;17.30;97.60
16267;DHT22;8241;48.786;9.250;2023-07-31T00:55:42;17.30;97.70
16267;DHT22;8241;48.786;9.250;2023-07-31T00:58:11;17.30;97.70
16267;DHT22;8241;48.786;9.250;2023-07-31T01:00:38;17.30;97.80
16267;DHT22;8241;48.786;9.250;2023-07-31T01:03:05;17.40;97.70
16267;DHT22;8241;48.786;9.250;2023-07-31T01:05:53;17.40;97.90
16267;DHT22;8241;48.786;9.250;2023-07-31T01:08:28;17.30;97.50
16267;DHT22;8241;48.786;9.250;2023-07-31T01:11:02;17.40;97.60
16267;DHT22;8241;48.786;9.250;2023-07-31T01:13:34;17.40;97.50
16267;DHT22;8241;48.786;9.250;2023-07-31T01:16:03;17.40;97.50
16267;DHT22;8241;48.786;9.250;2023-07-31T01:18:30;17.40;97.40
16267;DHT22;8241;48.786;9.250;2023-07-31T01:21:03;17.30;97.50
16267;DHT22;8241;48.786;9.250;2023-07-31T01:23:55;17.20;97.60
16267;DHT22;8241;48.786;9.250;2023-07-31T01:26:30;17.20;97.80
16267;DHT22;8241;48.786;9.250;2023-07-31T01:29:02;17.10;97.80
16267;DHT22;8241;48.786;9.250;2023-07-31T01:31:30;17.10;97.80
16267;DHT22;8241;48.786;9.250;2023-07-31T01:34:01;17.10;97.80
16267;DHT22;8241;48.786;9.250;2023-07-31T01:36:28;17.10;97.70
16267;DHT22;8241;48.786;9.250;2023-07-31T01:38:58;17.10;97.70
16267;DHT22;8241;48.786;9.250;2023-07-31T01:41:27;17.20;97.80
16267;DHT22;8241;48.786;9.250;2023-07-31T01:43:54;17.20;97.70
16267;DHT22;8241;48.786;9.250;2023-07-31T01:46:20;17.20;97.80
16267;DHT22;8241;48.786;9.250;2023-07-31T01:48:48;17.20;98.10
16267;DHT22;8241;48.786;9.250;2023-07-31T01:51:15;17.20;98.30
16267;DHT22;8241;48.786;9.250;2023-07-31T01:53:42;17.20;98.40
16267;DHT22;8241;48.786;9.250;2023-07-31T01:56:09;17.00;98.70
16267;DHT22;8241;48.786;9.250;2023-07-31T01:58:38;16.90;99.20
16267;DHT22;8241;48.786;9.250;2023-07-31T02:01:05;16.80;99.40
16267;DHT22;8241;48.786;9.250;2023-07-31T02:03:33;16.80;99.60
16267;DHT22;8241;48.786;9.250;2023-07-31T02:06:00;16.70;99.70
16267;DHT22;8241;48.786;9.250;2023-07-31T02:08:27;16.70;99.40
16267;DHT22;8241;48.786;9.250;2023-07-31T02:10:54;16.70;99.60
16267;DHT22;8241;48.786;9.250;2023-07-31T02:13:21;16.70;99.60
16267;DHT22;8241;48.786;9.250;2023-07-31T02:15:49;16.80;99.60
16267;DHT22;8241;48.786;9.250;2023-07-31T02:18:16;16.70;99.30
16267;DHT22;8241;48.786;9.250;2023-07-31T02:20:43;16.70;99.30
16267;DHT22;8241;48.786;9.250;2023-07-31T02:23:12;16.70;99.30
16267;DHT22;8241;48.786;9.250;2023-07-31T02:25:39;16.80;99.10
16267;DHT22;8241;48.786;9.250;2023-07-31T02:28:06;16.70;99.20
16267;DHT22;8241;48.786;9.250;2023-07-31T02:30:32;16.70;99.00
16267;DHT22;8241;48.786;9.250;2023-07-31T02:32:59;16.70;99.10
16267;DHT22;8241;48.786;9.250;2023-07-31T02:35:26;16.80;98.90
16267;DHT22;8241;48.786;9.250;2023-07-31T02:37:53;16.80;99.00
16267;DHT22;8241;48.786;9.250;2023-07-31T02:40:20;16.70;99.00
16267;DHT22;8241;48.786;9.250;2023-07-31T02:42:47;16.80;99.10
16267;DHT22;8241;48.786;9.250;2023-07-31T02:45:14;16.80;99.10
16267;DHT22;8241;48.786;9.250;2023-07-31T02:47:41;16.80;98.90
16267;DHT22;8241;48.786;9.250;2023-07-31T02:50:09;16.80;98.90
16267;DHT22;8241;48.786;9.250;2023-07-31T02:52:36;16.80;99.00
16267;DHT22;8241;48.786;9.250;2023-07-31T02:55:04;16.90;99.00
16267;DHT22;8241;48.786;9.250;2023-07-31T02:57:30;16.90;98.60
16267;DHT22;8241;48.786;9.250;2023-07-31T02:59:57;16.90;98.50
16267;DHT22;8241;48.786;9.250;2023-07-31T03:02:24;16.90;98.60
16267;DHT22;8241;48.786;9.250;2023-07-31T03:04:51;16.90;98.60
16267;DHT22;8241;48.786;9.250;2023-07-31T03:07:19;16.90;98.60
16267;DHT22;8241;48.786;9.250;2023-07-31T03:09:46;16.80;98.70
16267;DHT22;8241;48.786;9.250;2023-07-31T03:12:14;16.80;98.90
16267;DHT22;8241;48.786;9.250;2023-07-31T03:14:41;16.80;99.00
16267;DHT22;8241;48.786;9.250;2023-07-31T03:17:08;16.80;99.00
16267;DHT22;8241;48.786;9.250;2023-07-31T03:19:35;16.90;99.00
16267;DHT22;8241;48.786;9.250;2023-07-31T03:22:02;16.90;98.60
16267;DHT22;8241;48.786;9.250;2023-07-31T03:24:30;16.90;98.70
16267;DHT22;8241;48.786;9.250;2023-07-31T03:26:57;16.90;98.70
16267;DHT22;8241;48.786;9.250;2023-07-31T03:29:26;16.90;98.70
16267;DHT22;8241;48.786;9.250;2023-07-31T03:31:53;16.90;98.50
16267;DHT22;8241;48.786;9.250;2023-07-31T03:34:19;16.90;98.50
16267;DHT22;8241;48.786;9.250;2023-07-31T03:36:46;16.90;98.40
16267;DHT22;8241;48.786;9.250;2023-07-31T03:39:13;16.80;98.30
16267;DHT22;8241;48.786;9.250;2023-07-31T03:41:41;16.70;98.40
16267;DHT22;8241;48.786;9.250;2023-07-31T03:44:08;16.70;98.50
16267;DHT22;8241;48.786;9.250;2023-07-31T03:46:34;16.60;98.50
16267;DHT22;8241;48.786;9.250;2023-07-31T03:49:01;16.60;98.60
16267;DHT22;8241;48.786;9.250;2023-07-31T03:51:28;16.60;98.70
16267;DHT22;8241;48.786;9.250;2023-07-31T03:53:55;16.60;98.70
16267;DHT22;8241;48.786;9.250;2023-07-31T03:56:22;16.60;98.90
16267;DHT22;8241;48.786;9.250;2023-07-31T03:58:50;16.60;98.80
16267;DHT22;8241;48.786;9.250;2023-07-31T04:01:18;16.60;98.80
16267;DHT22;8241;48.786;9.250;2023-07-31T04:03:45;16.50;98.80
16267;DHT22;8241;48.786;9.250;2023-07-31T04:06:12;16.50;98.70
16267;DHT22;8241;48.786;9.250;2023-07-31T04:08:39;16.50;98.70
16267;DHT22;8241;48.786;9.250;2023-07-31T04:11:05;16.50;98.70
16267;DHT22;8241;48.786;9.250;2023-07-31T04:13:32;16.60;98.70
16267;DHT22;8241;48.786;9.250;2023-07-31T04:16:00;16.60;98.50
16267;DHT22;8241;48.786;9.250;2023-07-31T04:18:28;16.60;98.50
16267;DHT22;8241;48.786;9.250;2023-07-31T04:20:58;16.60;98.40
16267;DHT22;8241;48.786;9.250;2023-07-31T04:23:26;16.70;98.40
16267;DHT22;8241;48.786;9.250;2023-07-31T04:25:53;16.60;98.50
16267;DHT22;8241;48.786;9.250;2023-07-31T04:28:20;16.70;98.50
16267;DHT22;8241;48.786;9.250;2023-07-31T04:30:47;16.70;98.50
16267;DHT22;8241;48.786;9.250;2023-07-31T04:33:15;16.80;98.50
16267;DHT22;8241;48.786;9.250;2023-07-31T04:35:49;16.80;98.50
16267;DHT22;8241;48.786;9.250;2023-07-31T04:38:17;16.80;98.50
16267;DHT22;8241;48.786;9.250;2023-07-31T04:40:44;16.80;98.50
16267;DHT22;8241;48.786;9.250;2023-07-31T04:43:11;16.90;98.30
16267;DHT22;8241;48.786;9.250;2023-07-31T04:45:38;16.90;98.40
16267;DHT22;8241;48.786;9.250;2023-07-31T04:48:05;16.90;98.20
16267;DHT22;8241;48.786;9.250;2023-07-31T04:50:33;16.90;98.30
16267;DHT22;8241;48.786;9.250;2023-07-31T04:53:00;16.90;98.30
16267;DHT22;8241;48.786;9.250;2023-07-31T04:55:27;16.90;98.60
16267;DHT22;8241;48.786;9.250;2023-07-31T04:57:54;16.90;98.60
16267;DHT22;8241;48.786;9.250;2023-07-31T05:00:21;16.80;98.50
16267;DHT22;8241;48.786;9.250;2023-07-31T05:02:47;16.90;98.70
16267;DHT22;8241;48.786;9.250;2023-07-31T05:05:14;16.90;98.60
16267;DHT22;8241;48.786;9.250;2023-07-31T05:07:42;16.90;98.50
16267;DHT22;8241;48.786;9.250;2023-07-31T05:10:09;17.00;98.60
16267;DHT22;8241;48.786;9.250;2023-07-31T05:12:36;17.00;98.60
16267;DHT22;8241;48.786;9.250;2023-07-31T05:15:04;16.90;98.70
16267;DHT22;8241;48.786;9.250;2023-07-31T05:17:31;17.00;98.60
16267;DHT22;8241;48.786;9.250;2023-07-31T05:19:57;17.00;98.70
16267;DHT22;8241;48.786;9.250;2023-07-31T05:22:24;17.00;98.70
16267;DHT22;8241;48.786;9.250;2023-07-31T05:24:52;16.90;98.90
16267;DHT22;8241;48.786;9.250;2023-07-31T05:27:20;16.90;98.90
16267;DHT22;8241;48.786;9.250;2023-07-31T05:29:47;16.90;98.90
16267;DHT22;8241;48.786;9.250;2023-07-31T05:32:13;16.90;98.90
16267;DHT22;8241;48.786;9.250;2023-07-31T05:34:40;16.90;99.00
16267;DHT22;8241;48.786;9.250;2023-07-31T05:37:09;17.00;99.00
16267;DHT22;8241;48.786;9.250;2023-07-31T05:39:36;17.10;99.00
16267;DHT22;8241;48.786;9.250;2023-07-31T05:42:05;17.20;98.80
16267;DHT22;8241;48.786;9.250;2023-07-31T05:44:32;17.20;98.60
16267;DHT22;8241;48.786;9.250;2023-07-31T05:46:58;17.30;98.50
16267;DHT22;8241;48.786;9.250;2023-07-31T05:49:25;17.30;98.60
16267;DHT22;8241;48.786;9.250;2023-07-31T05:51:52;17.40;98.50
16267;DHT22;8241;48.786;9.250;2023-07-31T05:54:19;17.50;98.40
16267;DHT22;8241;48.786;9.250;2023-07-31T05:56:46;17.60;98.20
16267;DHT22;8241;48.786;9.250;2023-07-31T05:59:15;17.70;98.00
16267;DHT22;8241;48.786;9.250;2023-07-31T06:01:42;17.70;97.60
16267;DHT22;8241;48.786;9.250;2023-07-31T06:04:10;17.90;97.60
16267;DHT22;8241;48.786;9.250;2023-07-31T06:06:37;17.90;97.30
16267;DHT22;8241;48.786;9.250;2023-07-31T06:09:04;18.00;97.00
16267;DHT22;8241;48.786;9.250;2023-07-31T06:11:31;18.10;96.30
16267;DHT22;8241;48.786;9.250;2023-07-31T06:13:58;18.20;96.20
16267;DHT22;8241;48.786;9.250;2023-07-31T06:16:27;18.40;95.90
16267;DHT22;8241;48.786;9.250;2023-07-31T06:18:54;18.40;95.80
16267;DHT22;8241;48.786;9.250;2023-07-31T06:21:20;18.50;95.50
16267;DHT22;8241;48.786;9.250;2023-07-31T06:23:47;18.60;95.30
16267;DHT22;8241;48.786;9.250;2023-07-31T06:26:14;18.70;95.30
16267;DHT22;8241;48.786;9.250;2023-07-31T06:28:41;18.90;95.00
16267;DHT22;8241;48.786;9.250;2023-07-31T06:31:08;19.30;94.50
16267;DHT22;8241;48.786;9.250;2023-07-31T06:33:37;19.90;93.90
16267;DHT22;8241;48.786;9.250;2023-07-31T06:36:04;20.50;92.90
16267;DHT22;8241;48.786;9.250;2023-07-31T06:38:31;21.00;91.90
16267;DHT22;8241;48.786;9.250;2023-07-31T06:40:58;21.60;91.10
16267;DHT22;8241;48.786;9.250;2023-07-31T06:43:25;22.10;90.40
16267;DHT22;8241;48.786;9.250;2023-07-31T06:45:52;22.00;90.30
16267;DHT22;8241;48.786;9.250;2023-07-31T06:48:19;22.00;90.30
16267;DHT22;8241;48.786;9.250;2023-07-31T06:50:47;21.80;90.20
16267;DHT22;8241;48.786;9.250;2023-07-31T06:53:14;21.80;90.30
16267;DHT22;8241;48.786;9.250;2023-07-31T06:55:41;21.80;90.40
16267;DHT22;8241;48.786;9.250;2023-07-31T06:58:07;21.90;90.80
16267;DHT22;8241;48.786;9.250;2023-07-31T07:00:35;22.10;91.00
16267;DHT22;8241;48.786;9.250;2023-07-31T07:03:01;22.60;90.20
16267;DHT22;8241;48.786;9.250;2023-07-31T07:05:28;22.80;87.10
16267;DHT22;8241;48.786;9.250;2023-07-31T07:07:57;22.90;86.70
16267;DHT22;8241;48.786;9.250;2023-07-31T07:10:23;22.80;86.50
16267;DHT22;8241;48.786;9.250;2023-07-31T07:12:50;22.50;87.00
16267;DHT22;8241;48.786;9.250;2023-07-31T07:15:18;22.20;88.00
16267;DHT22;8241;48.786;9.250;2023-07-31T07:17:44;22.20;89.00
16267;DHT22;8241;48.786;9.250;2023-07-31T07:20:12;22.50;88.10
16267;DHT22;8241;48.786;9.250;2023-07-31T07:22:39;22.70;86.70
16267;DHT22;8241;48.786;9.250;2023-07-31T07:25:10;23.20;84.80
16267;DHT22;8241;48.786;9.250;2023-07-31T07:27:37;23.10;84.20
16267;DHT22;8241;48.786;9.250;2023-07-31T07:30:05;22.50;86.30
16267;DHT22;8241;48.786;9.250;2023-07-31T07:32:32;22.20;87.20
16267;DHT22;8241;48.786;9.250;2023-07-31T07:34:59;22.00;88.10
16267;DHT22;8241;48.786;9.250;2023-07-31T07:37:26;22.00;89.60
16267;DHT22;8241;48.786;9.250;2023-07-31T07:39:53;22.30;87.80
16267;DHT22;8241;48.786;9.250;2023-07-31T07:42:21;22.20;86.80
16267;DHT22;8241;48.786;9.250;2023-07-31T07:44:48;22.10;87.30
16267;DHT22;8241;48.786;9.250;2023-07-31T07:47:14;22.00;87.50
16267;DHT22;8241;48.786;9.250;2023-07-31T07:49:42;21.80;88.20
16267;DHT22;8241;48.786;9.250;2023-07-31T07:52:08;21.70;88.20
16267;DHT22;8241;48.786;9.250;2023-07-31T07:54:35;21.60;88.90
16267;DHT22;8241;48.786;9.250;2023-07-31T07:57:03;21.80;89.80
16267;DHT22;8241;48.786;9.250;2023-07-31T07:59:31;22.50;87.80
16267;DHT22;8241;48.786;9.250;2023-07-31T08:01:58;22.90;86.50
16267;DHT22;8241;48.786;9.250;2023-07-31T08:04:25;22.80;85.10
16267;DHT22;8241;48.786;9.250;2023-07-31T08:06:52;22.70;85.90
16267;DHT22;8241;48.786;9.250;2023-07-31T08:09:18;22.80;85.50
16267;DHT22;8241;48.786;9.250;2023-07-31T08:11:45;22.70;84.80
16267;DHT22;8241;48.786;9.250;2023-07-31T08:14:13;22.40;85.60
16267;DHT22;8241;48.786;9.250;2023-07-31T08:16:41;22.30;86.60
16267;DHT22;8241;48.786;9.250;2023-07-31T08:19:08;22.90;85.60
16267;DHT22;8241;48.786;9.250;2023-07-31T08:21:35;23.10;84.50
16267;DHT22;8241;48.786;9.250;2023-07-31T08:24:02;22.90;85.00
16267;DHT22;8241;48.786;9.250;2023-07-31T08:26:29;22.70;84.00
16267;DHT22;8241;48.786;9.250;2023-07-31T08:28:55;22.40;84.90
16267;DHT22;8241;48.786;9.250;2023-07-31T08:31:23;22.30;86.20
16267;DHT22;8241;48.786;9.250;2023-07-31T08:33:51;22.90;86.00
16267;DHT22;8241;48.786;9.250;2023-07-31T08:36:18;23.80;82.60
16267;DHT22;8241;48.786;9.250;2023-07-31T08:38:45;24.40;82.80
16267;DHT22;8241;48.786;9.250;2023-07-31T08:41:12;25.40;79.50
16267;DHT22;8241;48.786;9.250;2023-07-31T08:43:40;26.30;76.30
16267;DHT22;8241;48.786;9.250;2023-07-31T08:46:07;26.70;75.50
16267;DHT22;8241;48.786;9.250;2023-07-31T08:48:35;26.80;75.20
16267;DHT22;8241;48.786;9.250;2023-07-31T08:51:05;26.20;75.60
16267;DHT22;8241;48.786;9.250;2023-07-31T08:53:32;25.50;76.80
16267;DHT22;8241;48.786;9.250;2023-07-31T08:55:59;24.80;78.20
16267;DHT22;8241;48.786;9.250;2023-07-31T08:58:30;24.30;79.30
16267;DHT22;8241;48.786;9.250;2023-07-31T09:00:59;24.20;80.40
16267;DHT22;8241;48.786;9.250;2023-07-31T09:03:28;24.20;81.30
16267;DHT22;8241;48.786;9.250;2023-07-31T09:05:56;24.20;80.70
16267;DHT22;8241;48.786;9.250;2023-07-31T09:08:30;23.80;81.60
16267;DHT22;8241;48.786;9.250;2023-07-31T09:10:59;23.60;83.70
16267;DHT22;8241;48.786;9.250;2023-07-31T09:13:28;23.50;83.40
16267;DHT22;8241;48.786;9.250;2023-07-31T09:15:56;23.50;83.10
16267;DHT22;8241;48.786;9.250;2023-07-31T09:18:23;23.50;82.10
16267;DHT22;8241;48.786;9.250;2023-07-31T09:21:01;23.60;81.80
16267;DHT22;8241;48.786;9.250;2023-07-31T09:23:41;23.50;82.40
16267;DHT22;8241;48.786;9.250;2023-07-31T09:26:08;23.40;83.00
16267;DHT22;8241;48.786;9.250;2023-07-31T09:28:36;23.30;83.70
16267;DHT22;8241;48.786;9.250;2023-07-31T09:31:03;23.10;84.10
16267;DHT22;8241;48.786;9.250;2023-07-31T09:33:30;22.90;84.10
16267;DHT22;8241;48.786;9.250;2023-07-31T09:35:58;22.80;85.60
16267;DHT22;8241;48.786;9.250;2023-07-31T09:38:26;22.80;85.20
16267;DHT22;8241;48.786;9.250;2023-07-31T09:40:54;22.80;84.80
16267;DHT22;8241;48.786;9.250;2023-07-31T09:43:22;22.90;84.10
16267;DHT22;8241;48.786;9.250;2023-07-31T09:45:55;22.90;85.10
16267;DHT22;8241;48.786;9.250;2023-07-31T09:48:23;22.90;86.50
16267;DHT22;8241;48.786;9.250;2023-07-31T09:50:53;22.90;85.10
16267;DHT22;8241;48.786;9.250;2023-07-31T09:53:28;22.90;85.00
16267;DHT22;8241;48.786;9.250;2023-07-31T09:55:58;22.90;85.80
16267;DHT22;8241;48.786;9.250;2023-07-31T09:58:28;23.00;85.40
16267;DHT22;8241;48.786;9.250;2023-07-31T10:00:57;23.10;83.90
16267;DHT22;8241;48.786;9.250;2023-07-31T10:03:25;23.20;84.20
16267;DHT22;8241;48.786;9.250;2023-07-31T10:05:53;23.10;83.60
16267;DHT22;8241;48.786;9.250;2023-07-31T10:08:28;23.00;84.30
16267;DHT22;8241;48.786;9.250;2023-07-31T10:10:59;22.90;85.00
16267;DHT22;8241;48.786;9.250;2023-07-31T10:13:28;22.70;85.00
16267;DHT22;8241;48.786;9.250;2023-07-31T10:15:59;22.70;86.30
16267;DHT22;8241;48.786;9.250;2023-07-31T10:18:26;22.80;86.30
16267;DHT22;8241;48.786;9.250;2023-07-31T10:20:55;23.00;85.90
16267;DHT22;8241;48.786;9.250;2023-07-31T10:23:22;23.00;84.90
16267;DHT22;8241;48.786;9.250;2023-07-31T10:25:51;23.10;85.70
16267;DHT22;8241;48.786;9.250;2023-07-31T10:28:21;23.10;85.20
16267;DHT22;8241;48.786;9.250;2023-07-31T10:30:49;23.10;85.10
16267;DHT22;8241;48.786;9.250;2023-07-31T10:33:16;22.90;84.70
16267;DHT22;8241;48.786;9.250;2023-07-31T10:35:43;22.90;85.00
16267;DHT22;8241;48.786;9.250;2023-07-31T10:38:11;22.90;85.40
16267;DHT22;8241;48.786;9.250;2023-07-31T10:40:38;22.90;84.70
16267;DHT22;8241;48.786;9.250;2023-07-31T10:43:06;22.90;85.40
16267;DHT22;8241;48.786;9.250;2023-07-31T10:45:37;23.00;84.70
16267;DHT22;8241;48.786;9.250;2023-07-31T10:48:05;23.10;84.00
16267;DHT22;8241;48.786;9.250;2023-07-31T10:50:37;23.10;85.40
16267;DHT22;8241;48.786;9.250;2023-07-31T10:53:04;23.20;84.10
16267;DHT22;8241;48.786;9.250;2023-07-31T10:55:36;23.20;84.80
16267;DHT22;8241;48.786;9.250;2023-07-31T10:58:06;23.30;85.80
16267;DHT22;8241;48.786;9.250;2023-07-31T11:00:37;23.30;84.60
16267;DHT22;8241;48.786;9.250;2023-07-31T11:03:05;23.40;84.80
16267;DHT22;8241;48.786;9.250;2023-07-31T11:05:51;23.50;84.90
16267;DHT22;8241;48.786;9.250;2023-07-31T11:08:21;23.70;85.40
16267;DHT22;8241;48.786;9.250;2023-07-31T11:10:50;23.80;83.00
16267;DHT22;8241;48.786;9.250;2023-07-31T11:13:17;23.80;82.40
16267;DHT22;8241;48.786;9.250;2023-07-31T11:15:46;23.80;83.70
16267;DHT22;8241;48.786;9.250;2023-07-31T11:18:13;23.80;84.30
16267;DHT22;8241;48.786;9.250;2023-07-31T11:20:40;23.90;84.20
16267;DHT22;8241;48.786;9.250;2023-07-31T11:23:09;23.90;83.70
16267;DHT22;8241;48.786;9.250;2023-07-31T11:25:37;23.80;83.10
16267;DHT22;8241;48.786;9.250;2023-07-31T11:28:05;23.80;83.70
16267;DHT22;8241;48.786;9.250;2023-07-31T11:30:33;23.80;85.00
16267;DHT22;8241;48.786;9.250;2023-07-31T11:33:04;23.80;84.70
16267;DHT22;8241;48.786;9.250;2023-07-31T11:35:32;23.80;83.00
16267;DHT22;8241;48.786;9.250;2023-07-31T11:38:00;23.70;82.90
16267;DHT22;8241;48.786;9.250;2023-07-31T11:40:27;23.60;83.00
16267;DHT22;8241;48.786;9.250;2023-07-31T11:42:56;23.50;83.80
16267;DHT22;8241;48.786;9.250;2023-07-31T11:45:25;23.20;83.20
16267;DHT22;8241;48.786;9.250;2023-07-31T11:47:54;23.00;84.40
16267;DHT22;8241;48.786;9.250;2023-07-31T11:50:24;22.90;84.70
16267;DHT22;8241;48.786;9.250;2023-07-31T11:52:54;22.90;85.00
16267;DHT22;8241;48.786;9.250;2023-07-31T11:55:22;22.90;85.10
16267;DHT22;8241;48.786;9.250;2023-07-31T11:57:50;22.80;85.00
16267;DHT22;8241;48.786;9.250;2023-07-31T12:00:18;22.90;85.40
16267;DHT22;8241;48.786;9.250;2023-07-31T12:02:45;22.90;85.50
16267;DHT22;8241;48.786;9.250;2023-07-31T12:05:13;23.00;86.80
16267;DHT22;8241;48.786;9.250;2023-07-31T12:07:45;23.10;86.40
16267;DHT22;8241;48.786;9.250;2023-07-31T12:10:26;23.20;86.80
16267;DHT22;8241;48.786;9.250;2023-07-31T12:13:01;23.40;84.60
16267;DHT22;8241;48.786;9.250;2023-07-31T12:15:37;23.40;84.30
16267;DHT22;8241;48.786;9.250;2023-07-31T12:18:05;23.50;84.30
16267;DHT22;8241;48.786;9.250;2023-07-31T12:20:33;23.40;84.70
16267;DHT22;8241;48.786;9.250;2023-07-31T12:23:02;23.40;85.10
16267;DHT22;8241;48.786;9.250;2023-07-31T12:25:33;23.50;85.50
16267;DHT22;8241;48.786;9.250;2023-07-31T12:28:06;23.50;85.00
16267;DHT22;8241;48.786;9.250;2023-07-31T12:30:37;23.40;86.40
16267;DHT22;8241;48.786;9.250;2023-07-31T12:33:05;23.30;86.20
16267;DHT22;8241;48.786;9.250;2023-07-31T12:35:37;23.30;84.80
16267;DHT22;8241;48.786;9.250;2023-07-31T12:38:05;23.20;85.10
16267;DHT22;8241;48.786;9.250;2023-07-31T12:40:32;23.20;85.00
16267;DHT22;8241;48.786;9.250;2023-07-31T12:43:01;23.10;85.60
16267;DHT22;8241;48.786;9.250;2023-07-31T12:45:29;23.10;86.00
16267;DHT22;8241;48.786;9.250;2023-07-31T12:47:56;23.10;85.50
16267;DHT22;8241;48.786;9.250;2023-07-31T12:50:23;23.00;85.80
16267;DHT22;8241;48.786;9.250;2023-07-31T12:52:51;23.00;86.10
16267;DHT22;8241;48.786;9.250;2023-07-31T12:55:21;22.90;86.40
16267;DHT22;8241;48.786;9.250;2023-07-31T12:57:48;22.90;86.50
16267;DHT22;8241;48.786;9.250;2023-07-31T13:00:15;22.80;86.40
16267;DHT22;8241;48.786;9.250;2023-07-31T13:02:42;22.80;86.50
16267;DHT22;8241;48.786;9.250;2023-07-31T13:05:09;22.80;87.10
16267;DHT22;8241;48.786;9.250;2023-07-31T13:07:36;22.90;87.10
16267;DHT22;8241;48.786;9.250;2023-07-31T13:10:05;22.90;86.80
16267;DHT22;8241;48.786;9.250;2023-07-31T13:12:33;23.00;86.50
16267;DHT22;8241;48.786;9.250;2023-07-31T13:15:00;23.10;86.90
16267;DHT22;8241;48.786;9.250;2023-07-31T13:17:27;23.10;87.20
16267;DHT22;8241;48.786;9.250;2023-07-31T13:19:54;23.10;87.20
16267;DHT22;8241;48.786;9.250;2023-07-31T13:22:20;23.20;87.30
16267;DHT22;8241;48.786;9.250;2023-07-31T13:24:47;23.20;86.80
16267;DHT22;8241;48.786;9.250;2023-07-31T13:27:14;23.20;86.40
16267;DHT22;8241;48.786;9.250;2023-07-31T13:29:43;23.20;86.70
16267;DHT22;8241;48.786;9.250;2023-07-31T13:32:10;23.30;86.70
16267;DHT22;8241;48.786;9.250;2023-07-31T13:34:37;23.50;87.20
16267;DHT22;8241;48.786;9.250;2023-07-31T13:37:04;23.70;87.90
16267;DHT22;8241;48.786;9.250;2023-07-31T13:39:32;24.00;86.30
16267;DHT22;8241;48.786;9.250;2023-07-31T13:41:59;24.40;83.50
16267;DHT22;8241;48.786;9.250;2023-07-31T13:44:26;24.60;81.40
16267;DHT22;8241;48.786;9.250;2023-07-31T13:46:54;24.90;82.10
16267;DHT22;8241;48.786;9.250;2023-07-31T13:49:21;25.50;81.40
16267;DHT22;8241;48.786;9.250;2023-07-31T13:51:47;25.70;79.70
16267;DHT22;8241;48.786;9.250;2023-07-31T13:54:14;25.70;79.90
16267;DHT22;8241;48.786;9.250;2023-07-31T13:56:43;25.60;80.00
16267;DHT22;8241;48.786;9.250;2023-07-31T13:59:10;25.40;80.40
16267;DHT22;8241;48.786;9.250;2023-07-31T14:01:37;25.10;81.70
16267;DHT22;8241;48.786;9.250;2023-07-31T14:04:05;24.90;82.10
16267;DHT22;8241;48.786;9.250;2023-07-31T14:06:32;24.80;83.00
16267;DHT22;8241;48.786;9.250;2023-07-31T14:08:59;24.70;83.80
16267;DHT22;8241;48.786;9.250;2023-07-31T14:11:26;24.60;83.80
16267;DHT22;8241;48.786;9.250;2023-07-31T14:13:53;24.40;84.10
16267;DHT22;8241;48.786;9.250;2023-07-31T14:16:20;24.40;84.20
16267;DHT22;8241;48.786;9.250;2023-07-31T14:18:47;24.30;85.10
16267;DHT22;8241;48.786;9.250;2023-07-31T14:21:15;24.20;84.00
16267;DHT22;8241;48.786;9.250;2023-07-31T14:23:44;24.20;84.40
16267;DHT22;8241;48.786;9.250;2023-07-31T14:26:12;24.10;84.80
16267;DHT22;8241;48.786;9.250;2023-07-31T14:28:39;24.10;85.00
16267;DHT22;8241;48.786;9.250;2023-07-31T14:31:06;24.00;83.90
16267;DHT22;8241;48.786;9.250;2023-07-31T14:33:33;23.90;84.70
16267;DHT22;8241;48.786;9.250;2023-07-31T14:36:01;23.80;84.70
16267;DHT22;8241;48.786;9.250;2023-07-31T14:38:29;23.80;85.60
16267;DHT22;8241;48.786;9.250;2023-07-31T14:40:56;23.80;86.00
16267;DHT22;8241;48.786;9.250;2023-07-31T14:43:23;23.80;85.60
16267;DHT22;8241;48.786;9.250;2023-07-31T14:45:50;23.80;85.50
16267;DHT22;8241;48.786;9.250;2023-07-31T14:48:17;23.80;85.80
16267;DHT22;8241;48.786;9.250;2023-07-31T14:50:44;23.80;86.00
16267;DHT22;8241;48.786;9.250;2023-07-31T14:53:10;23.90;85.80
16267;DHT22;8241;48.786;9.250;2023-07-31T14:55:39;24.00;85.60
16267;DHT22;8241;48.786;9.250;2023-07-31T14:58:05;24.00;85.60
16267;DHT22;8241;48.786;9.250;2023-07-31T15:00:32;24.10;87.10
16267;DHT22;8241;48.786;9.250;2023-07-31T15:03:00;24.20;86.30
16267;DHT22;8241;48.786;9.250;2023-07-31T15:05:27;24.40;86.60
16267;DHT22;8241;48.786;9.250;2023-07-31T15:07:53;24.40;85.90
16267;DHT22;8241;48.786;9.250;2023-07-31T15:10:20;24.50;86.00
16267;DHT22;8241;48.786;9.250;2023-07-31T15:12:49;24.60;85.20
16267;DHT22;8241;48.786;9.250;2023-07-31T15:15:16;24.60;85.60
16267;DHT22;8241;48.786;9.250;2023-07-31T15:17:43;24.70;85.70
16267;DHT22;8241;48.786;9.250;2023-07-31T15:20:10;24.80;84.10
16267;DHT22;8241;48.786;9.250;2023-07-31T15:22:38;24.80;83.40
16267;DHT22;8241;48.786;9.250;2023-07-31T15:25:06;24.70;82.20
16267;DHT22;8241;48.786;9.250;2023-07-31T15:27:33;24.60;82.50
16267;DHT22;8241;48.786;9.250;2023-07-31T15:30:01;24.50;82.50
16267;DHT22;8241;48.786;9.250;2023-07-31T15:32:30;24.50;83.10
16267;DHT22;8241;48.786;9.250;2023-07-31T15:34:57;24.60;82.20
16267;DHT22;8241;48.786;9.250;2023-07-31T15:37:24;24.60;82.90
16267;DHT22;8241;48.786;9.250;2023-07-31T15:39:51;24.70;83.00
16267;DHT22;8241;48.786;9.250;2023-07-31T15:42:18;24.80;82.60
16267;DHT22;8241;48.786;9.250;2023-07-31T15:44:45;24.80;82.40
16267;DHT22;8241;48.786;9.250;2023-07-31T15:47:13;24.90;81.50
16267;DHT22;8241;48.786;9.250;2023-07-31T15:49:40;24.90;81.30